createdAt,value
2023-04-07T00:00:32.080Z,26
2023-04-07T00:01:39.092Z,25
2023-04-07T00:02:45.941Z,28
2023-04-07T00:03:53.028Z,26
2023-04-07T00:04:59.551Z,25
2023-04-07T00:06:06.373Z,26
2023-04-07T00:07:13.144Z,26
2023-04-07T00:08:19.883Z,27
2023-04-07T00:09:26.652Z,26
2023-04-07T00:10:33.467Z,28
2023-04-07T00:11:40.337Z,30
2023-04-07T00:12:47.139Z,28
2023-04-07T00:13:54.227Z,28
2023-04-07T00:15:00.832Z,27
2023-04-07T00:16:07.918Z,29
2023-04-07T00:17:14.620Z,30
2023-04-07T00:18:21.318Z,30
2023-04-07T00:19:28.302Z,31
2023-04-07T00:20:35.054Z,29
2023-04-07T00:21:41.762Z,29
2023-04-07T00:22:48.471Z,27
2023-04-07T00:23:55.447Z,28
2023-04-07T00:25:02.195Z,27
2023-04-07T00:26:09.265Z,26
2023-04-07T00:27:15.983Z,26
2023-04-07T00:28:22.793Z,26
2023-04-07T00:29:29.623Z,25
2023-04-07T00:30:36.525Z,26
2023-04-07T00:31:43.234Z,25
2023-04-07T00:32:49.918Z,22
2023-04-07T00:33:56.808Z,24
2023-04-07T00:35:03.703Z,23
2023-04-07T00:36:10.645Z,24
2023-04-07T00:37:17.324Z,23
2023-04-07T00:38:23.985Z,22
2023-04-07T00:39:30.734Z,24
2023-04-07T00:40:37.662Z,22
2023-04-07T00:41:44.509Z,22
2023-04-07T00:42:51.250Z,22
2023-04-07T00:43:57.990Z,21
2023-04-07T00:45:04.750Z,21
2023-04-07T00:46:11.804Z,20
2023-04-07T00:47:18.742Z,21
2023-04-07T00:48:25.521Z,22
2023-04-07T00:49:32.264Z,19
2023-04-07T00:50:39.119Z,21
2023-04-07T00:51:45.845Z,21
2023-04-07T00:52:52.617Z,21
2023-04-07T00:53:59.426Z,20
2023-04-07T00:55:06.231Z,19
2023-04-07T00:56:13.099Z,19
2023-04-07T00:57:19.949Z,20
2023-04-07T00:58:26.827Z,18
2023-04-07T00:59:33.470Z,19
2023-04-07T01:00:40.334Z,19
2023-04-07T01:01:52.157Z,18
2023-04-07T01:03:01.998Z,18
2023-04-07T01:04:08.600Z,18
2023-04-07T01:05:18.347Z,20
2023-04-07T01:06:33.351Z,18
2023-04-07T01:07:40.084Z,19
2023-04-07T01:08:49.529Z,18
2023-04-07T01:10:06.470Z,18
2023-04-07T01:11:13.248Z,18
2023-04-07T01:12:22.939Z,20
2023-04-07T01:13:34.686Z,19
2023-04-07T01:14:41.456Z,16
2023-04-07T01:15:51.136Z,16
2023-04-07T01:16:57.871Z,17
2023-04-07T01:18:04.696Z,18
2023-04-07T01:19:14.015Z,18
2023-04-07T01:20:30.978Z,17
2023-04-07T01:21:37.838Z,17
2023-04-07T01:22:44.628Z,17
2023-04-07T01:23:54.528Z,17
2023-04-07T01:25:03.614Z,18
2023-04-07T01:26:15.511Z,18
2023-04-07T01:27:25.067Z,18
2023-04-07T01:28:36.985Z,16
2023-04-07T01:29:46.725Z,16
2023-04-07T01:30:53.425Z,17
2023-04-07T01:32:00.325Z,16
2023-04-07T01:33:07.134Z,17
2023-04-07T01:34:13.918Z,17
2023-04-07T01:35:20.751Z,18
2023-04-07T01:36:27.477Z,16
2023-04-07T01:37:34.366Z,16
2023-04-07T01:38:41.125Z,16
2023-04-07T01:39:47.887Z,18
2023-04-07T01:40:54.686Z,17
2023-04-07T01:42:01.475Z,17
2023-04-07T01:43:08.300Z,17
2023-04-07T01:44:15.095Z,18
2023-04-07T01:45:21.842Z,17
2023-04-07T01:46:28.693Z,17
2023-04-07T01:47:35.644Z,17
2023-04-07T01:48:42.232Z,17
2023-04-07T01:49:48.950Z,18
2023-04-07T01:50:55.608Z,17
2023-04-07T01:52:02.369Z,18
2023-04-07T01:53:09.118Z,18
2023-04-07T01:54:15.780Z,18
2023-04-07T01:55:22.527Z,19
2023-04-07T01:56:29.340Z,18
2023-04-07T01:57:36.125Z,17
2023-04-07T01:58:42.829Z,17
2023-04-07T01:59:49.687Z,17
2023-04-07T02:00:56.488Z,19
2023-04-07T02:02:03.301Z,18
2023-04-07T02:03:10.364Z,18
2023-04-07T02:04:16.865Z,17
2023-04-07T02:05:28.797Z,17
2023-04-07T02:06:35.515Z,17
2023-04-07T02:07:42.233Z,16
2023-04-07T02:08:57.010Z,17
2023-04-07T02:10:03.670Z,18
2023-04-07T02:11:10.758Z,17
2023-04-07T02:12:17.521Z,17
2023-04-07T02:13:24.324Z,18
2023-04-07T02:14:31.119Z,16
2023-04-07T02:15:37.840Z,16
2023-04-07T02:16:45.702Z,17
2023-04-07T02:17:51.339Z,17
2023-04-07T02:18:58.061Z,16
2023-04-07T02:20:04.870Z,18
2023-04-07T02:21:11.670Z,17
2023-04-07T02:22:18.414Z,16
2023-04-07T02:23:25.184Z,17
2023-04-07T02:24:32.160Z,18
2023-04-07T02:25:38.909Z,18
2023-04-07T02:26:45.628Z,17
2023-04-07T02:27:52.358Z,16
2023-04-07T02:28:59.126Z,17
2023-04-07T02:30:05.985Z,18
2023-04-07T02:31:13.119Z,18
2023-04-07T02:32:19.883Z,18
2023-04-07T02:33:26.609Z,17
2023-04-07T02:34:33.496Z,17
2023-04-07T02:35:40.188Z,18
2023-04-07T02:36:47.169Z,19
2023-04-07T02:37:54.003Z,17
2023-04-07T02:39:00.603Z,17
2023-04-07T02:40:07.283Z,17
2023-04-07T02:41:14.114Z,17
2023-04-07T02:42:20.861Z,18
2023-04-07T02:43:27.725Z,17
2023-04-07T02:44:34.416Z,17
2023-04-07T02:45:41.110Z,18
2023-04-07T02:46:47.804Z,18
2023-04-07T02:47:54.779Z,18
2023-04-07T02:49:01.493Z,17
2023-04-07T02:50:08.249Z,19
2023-04-07T02:51:14.942Z,18
2023-04-07T02:52:21.646Z,19
2023-04-07T02:53:28.417Z,18
2023-04-07T02:54:35.165Z,18
2023-04-07T02:55:41.878Z,17
2023-04-07T02:56:48.666Z,17
2023-04-07T02:57:55.397Z,18
2023-04-07T02:59:02.289Z,18
2023-04-07T03:00:09.104Z,17
2023-04-07T03:01:16.055Z,18
2023-04-07T03:02:22.800Z,19
2023-04-07T03:03:29.648Z,16
2023-04-07T03:04:36.265Z,17
2023-04-07T03:05:43.092Z,18
2023-04-07T03:06:49.913Z,17
2023-04-07T03:07:56.923Z,18
2023-04-07T03:09:03.661Z,18
2023-04-07T03:10:10.594Z,19
2023-04-07T03:11:17.424Z,17
2023-04-07T03:12:24.077Z,19
2023-04-07T03:13:30.951Z,18
2023-04-07T03:14:37.774Z,17
2023-04-07T03:15:44.566Z,18
2023-04-07T03:16:51.369Z,17
2023-04-07T03:17:58.187Z,17
2023-04-07T03:19:04.933Z,17
2023-04-07T03:20:11.658Z,17
2023-04-07T03:21:18.577Z,16
2023-04-07T03:22:25.309Z,16
2023-04-07T03:23:31.980Z,17
2023-04-07T03:24:38.703Z,16
2023-04-07T03:25:47.438Z,16
2023-04-07T03:26:52.385Z,16
2023-04-07T03:27:59.102Z,17
2023-04-07T03:29:06.026Z,17
2023-04-07T03:30:12.730Z,17
2023-04-07T03:31:19.625Z,17
2023-04-07T03:32:26.350Z,17
2023-04-07T03:33:33.066Z,18
2023-04-07T03:34:39.760Z,16
2023-04-07T03:35:46.464Z,17
2023-04-07T03:36:53.287Z,15
2023-04-07T03:38:00.234Z,17
2023-04-07T03:39:07.027Z,18
2023-04-07T03:40:13.718Z,16
2023-04-07T03:41:20.597Z,18
2023-04-07T03:42:27.451Z,17
2023-04-07T03:43:34.172Z,17
2023-04-07T03:44:40.835Z,19
2023-04-07T03:45:47.555Z,17
2023-04-07T03:46:54.346Z,16
2023-04-07T03:48:01.109Z,16
2023-04-07T03:49:08.086Z,17
2023-04-07T03:50:14.847Z,17
2023-04-07T03:51:21.670Z,18
2023-04-07T03:52:28.448Z,18
2023-04-07T03:53:35.314Z,18
2023-04-07T03:54:42.062Z,19
2023-04-07T03:55:48.887Z,18
2023-04-07T03:56:55.613Z,17
2023-04-07T03:58:02.481Z,18
2023-04-07T03:59:09.224Z,19
2023-04-07T04:00:16.084Z,19
2023-04-07T04:01:22.864Z,19
2023-04-07T04:02:29.752Z,18
2023-04-07T04:03:36.490Z,19
2023-04-07T04:04:43.133Z,17
2023-04-07T04:05:49.837Z,18
2023-04-07T04:06:56.559Z,19
2023-04-07T04:08:03.366Z,19
2023-04-07T04:09:10.159Z,19
2023-04-07T04:10:16.959Z,20
2023-04-07T04:11:23.723Z,20
2023-04-07T04:12:30.499Z,19
2023-04-07T04:13:37.283Z,19
2023-04-07T04:14:43.963Z,19
2023-04-07T04:15:50.741Z,20
2023-04-07T04:16:57.617Z,20
2023-04-07T04:18:04.370Z,19
2023-04-07T04:19:11.104Z,20
2023-04-07T04:20:17.809Z,20
2023-04-07T04:21:24.544Z,19
2023-04-07T04:22:31.464Z,20
2023-04-07T04:23:38.267Z,20
2023-04-07T04:24:44.956Z,21
2023-04-07T04:25:51.619Z,21
2023-04-07T04:26:58.425Z,20
2023-04-07T04:28:05.159Z,22
2023-04-07T04:29:11.983Z,21
2023-04-07T04:30:18.681Z,22
2023-04-07T04:31:25.532Z,20
2023-04-07T04:32:32.284Z,21
2023-04-07T04:33:39.086Z,21
2023-04-07T04:34:45.820Z,21
2023-04-07T04:35:52.620Z,22
2023-04-07T04:36:59.446Z,22
2023-04-07T04:38:06.145Z,22
2023-04-07T04:39:12.961Z,22
2023-04-07T04:40:19.765Z,22
2023-04-07T04:41:26.578Z,22
2023-04-07T04:42:33.376Z,22
2023-04-07T04:43:40.096Z,21
2023-04-07T04:44:47.006Z,23
2023-04-07T04:45:53.792Z,22
2023-04-07T04:47:00.530Z,22
2023-04-07T04:48:07.368Z,23
2023-04-07T04:49:14.160Z,21
2023-04-07T04:50:21.098Z,22
2023-04-07T04:51:27.893Z,21
2023-04-07T04:52:34.580Z,22
2023-04-07T04:53:41.479Z,21
2023-04-07T04:54:48.204Z,21
2023-04-07T04:55:54.891Z,23
2023-04-07T04:57:01.617Z,22
2023-04-07T04:58:08.420Z,22
2023-04-07T04:59:15.100Z,21
2023-04-07T05:00:21.980Z,21
2023-04-07T05:01:29.189Z,22
2023-04-07T05:02:35.819Z,21
2023-04-07T05:03:42.790Z,22
2023-04-07T05:04:49.652Z,22
2023-04-07T05:05:56.137Z,20
2023-04-07T05:07:02.901Z,20
2023-04-07T05:08:09.600Z,21
2023-04-07T05:09:16.422Z,22
2023-04-07T05:10:23.099Z,21
2023-04-07T05:11:29.856Z,21
2023-04-07T05:13:43.503Z,22
2023-04-07T05:14:50.214Z,20
2023-04-07T05:15:57.063Z,22
2023-04-07T05:17:03.813Z,22
2023-04-07T05:18:10.709Z,22
2023-04-07T05:19:17.480Z,21
2023-04-07T05:20:24.194Z,23
2023-04-07T05:21:30.946Z,25
2023-04-07T05:22:37.826Z,25
2023-04-07T05:23:44.611Z,23
2023-04-07T05:24:51.459Z,24
2023-04-07T05:25:58.348Z,22
2023-04-07T05:27:05.129Z,21
2023-04-07T05:28:11.797Z,22
2023-04-07T05:29:18.615Z,23
2023-04-07T05:30:25.301Z,22
2023-04-07T05:31:32.082Z,21
2023-04-07T05:32:38.852Z,21
2023-04-07T05:33:45.649Z,24
2023-04-07T05:34:52.495Z,25
2023-04-07T05:35:59.274Z,25
2023-04-07T05:37:06.147Z,25
2023-04-07T05:38:12.916Z,25
2023-04-07T05:39:19.723Z,25
2023-04-07T05:40:26.523Z,25
2023-04-07T05:41:33.207Z,27
2023-04-07T05:42:40.019Z,24
2023-04-07T05:43:46.663Z,27
2023-04-07T05:44:53.440Z,34
2023-04-07T05:46:00.315Z,30
2023-04-07T05:47:07.124Z,27
2023-04-07T05:48:13.841Z,26
2023-04-07T05:49:20.814Z,27
2023-04-07T05:50:27.416Z,25
2023-04-07T05:51:34.243Z,24
2023-04-07T05:52:41.040Z,23
2023-04-07T05:53:47.813Z,21
2023-04-07T05:54:54.578Z,21
2023-04-07T05:56:01.434Z,24
2023-04-07T05:57:08.280Z,21
2023-04-07T05:58:15.084Z,19
2023-04-07T05:59:21.910Z,19
2023-04-07T06:00:28.732Z,22
2023-04-07T06:01:35.672Z,20
2023-04-07T06:02:42.646Z,19
2023-04-07T06:03:49.539Z,25
2023-04-07T06:04:56.050Z,27
2023-04-07T06:06:02.916Z,26
2023-04-07T06:07:09.678Z,41
2023-04-07T06:08:16.571Z,41
2023-04-07T06:09:23.375Z,34
2023-04-07T06:10:30.223Z,31
2023-04-07T06:11:37.050Z,26
2023-04-07T06:12:43.781Z,27
2023-04-07T06:13:51.047Z,37
2023-04-07T06:14:57.365Z,39
2023-04-07T06:16:04.216Z,34
2023-04-07T06:17:10.940Z,22
2023-04-07T06:18:17.743Z,26
2023-04-07T06:19:24.463Z,30
2023-04-07T06:20:31.428Z,28
2023-04-07T06:21:38.087Z,24
2023-04-07T06:22:44.820Z,24
2023-04-07T06:23:51.941Z,22
2023-04-07T06:24:58.462Z,26
2023-04-07T06:26:05.370Z,20
2023-04-07T06:27:14.784Z,20
2023-04-07T06:28:21.604Z,20
2023-04-07T06:29:28.421Z,21
2023-04-07T06:30:37.824Z,19
2023-04-07T06:31:44.571Z,18
2023-04-07T06:32:51.420Z,17
2023-04-07T06:33:58.228Z,18
2023-04-07T06:35:05.031Z,19
2023-04-07T06:36:11.819Z,23
2023-04-07T06:37:19.615Z,21
2023-04-07T06:38:26.719Z,20
2023-04-07T06:39:33.476Z,24
2023-04-07T06:40:40.227Z,23
2023-04-07T06:41:47.025Z,25
2023-04-07T06:42:53.857Z,24
2023-04-07T06:44:00.608Z,26
2023-04-07T06:45:07.407Z,25
2023-04-07T06:46:14.319Z,25
2023-04-07T06:47:20.903Z,22
2023-04-07T06:48:27.823Z,24
2023-04-07T06:49:36.511Z,29
2023-04-07T06:50:41.320Z,23
2023-04-07T06:51:50.633Z,20
2023-04-07T06:52:57.428Z,21
2023-04-07T06:54:04.236Z,21
2023-04-07T06:55:11.158Z,18
2023-04-07T06:56:18.006Z,18
2023-04-07T06:57:24.788Z,18
2023-04-07T06:58:31.500Z,18
2023-04-07T06:59:38.394Z,17
2023-04-07T07:00:45.213Z,17
2023-04-07T07:01:51.983Z,18
2023-04-07T07:02:58.768Z,19
2023-04-07T07:04:05.545Z,18
2023-04-07T07:05:12.264Z,19
2023-04-07T07:06:19.234Z,19
2023-04-07T07:07:26.404Z,18
2023-04-07T07:08:33.457Z,16
2023-04-07T07:09:40.150Z,16
2023-04-07T07:10:46.928Z,16
2023-04-07T07:11:53.710Z,16
2023-04-07T07:13:00.460Z,16
2023-04-07T07:14:07.192Z,15
2023-04-07T07:15:14.011Z,17
2023-04-07T07:16:20.809Z,18
2023-04-07T07:17:27.561Z,18
2023-04-07T07:18:34.550Z,18
2023-04-07T07:19:41.139Z,15
2023-04-07T07:20:47.947Z,14
2023-04-07T07:21:54.636Z,16
2023-04-07T07:23:01.535Z,18
2023-04-07T07:24:08.289Z,17
2023-04-07T07:25:15.064Z,18
2023-04-07T07:26:21.735Z,18
2023-04-07T07:27:28.479Z,18
2023-04-07T07:28:35.431Z,18
2023-04-07T07:29:42.180Z,18
2023-04-07T07:30:48.914Z,16
2023-04-07T07:31:56.241Z,18
2023-04-07T07:33:02.457Z,17
2023-04-07T07:34:09.272Z,19
2023-04-07T07:35:16.049Z,16
2023-04-07T07:36:22.728Z,15
2023-04-07T07:37:29.383Z,17
2023-04-07T07:38:37.517Z,19
2023-04-07T07:39:43.030Z,17
2023-04-07T07:40:49.742Z,16
2023-04-07T07:41:56.631Z,17
2023-04-07T07:43:03.238Z,20
2023-04-07T07:44:10.084Z,22
2023-04-07T07:45:16.974Z,22
2023-04-07T07:46:23.745Z,11
2023-04-07T07:47:30.778Z,10
2023-04-07T07:48:37.313Z,10
2023-04-07T07:49:44.018Z,11
2023-04-07T07:50:50.866Z,11
2023-04-07T07:51:57.770Z,11
2023-04-07T07:53:04.709Z,11
2023-04-07T07:54:11.153Z,11
2023-04-07T07:55:17.831Z,8
2023-04-07T07:56:24.669Z,10
2023-04-07T07:57:31.477Z,12
2023-04-07T07:58:38.105Z,12
2023-04-07T07:59:44.870Z,13
2023-04-07T08:00:51.693Z,12
2023-04-07T08:01:58.597Z,10
2023-04-07T08:03:05.351Z,11
2023-04-07T08:04:12.117Z,13
2023-04-07T08:05:18.687Z,17
2023-04-07T08:06:25.461Z,30
2023-04-07T08:07:32.278Z,14
2023-04-07T08:08:38.985Z,16
2023-04-07T08:09:45.790Z,42
2023-04-07T08:10:52.618Z,66
2023-04-07T08:11:59.311Z,54
2023-04-07T08:13:06.211Z,53
2023-04-07T08:14:12.933Z,28
2023-04-07T08:15:19.722Z,21
2023-04-07T08:16:26.587Z,34
2023-04-07T08:17:33.337Z,32
2023-04-07T08:18:40.164Z,16
2023-04-07T08:19:46.859Z,10
2023-04-07T08:20:53.604Z,14
2023-04-07T08:22:00.380Z,11
2023-04-07T08:23:07.108Z,8
2023-04-07T08:24:13.879Z,8
2023-04-07T08:25:20.570Z,12
2023-04-07T08:26:27.313Z,18
2023-04-07T08:27:34.082Z,9
2023-04-07T08:28:40.942Z,8
2023-04-07T08:29:47.883Z,9
2023-04-07T08:31:02.378Z,10
2023-04-07T08:32:08.964Z,11
2023-04-07T08:33:15.759Z,14
2023-04-07T08:34:22.482Z,18
2023-04-07T08:35:29.170Z,15
2023-04-07T08:36:35.985Z,11
2023-04-07T08:37:42.735Z,6
2023-04-07T08:38:49.688Z,7
2023-04-07T08:39:56.360Z,8
2023-04-07T08:41:03.063Z,9
2023-04-07T08:42:14.836Z,14
2023-04-07T08:43:21.548Z,10
2023-04-07T08:44:28.177Z,8
2023-04-07T08:45:35.050Z,8
2023-04-07T08:46:41.775Z,8
2023-04-07T08:47:48.540Z,8
2023-04-07T08:48:55.258Z,8
2023-04-07T08:50:02.070Z,9
2023-04-07T08:51:13.993Z,32
2023-04-07T08:52:20.678Z,46
2023-04-07T08:53:27.471Z,26
2023-04-07T08:54:34.220Z,12
2023-04-07T08:55:40.980Z,10
2023-04-07T08:56:47.802Z,8
2023-04-07T08:57:54.495Z,6
2023-04-07T08:59:01.338Z,7
2023-04-07T09:00:08.131Z,8
2023-04-07T09:01:15.130Z,10
2023-04-07T09:02:21.799Z,10
2023-04-07T09:03:28.519Z,13
2023-04-07T09:04:35.255Z,11
2023-04-07T09:05:41.972Z,8
2023-04-07T09:06:51.691Z,8
2023-04-07T09:07:58.531Z,7
2023-04-07T09:09:05.344Z,9
2023-04-07T09:10:12.135Z,8
2023-04-07T09:11:18.941Z,9
2023-04-07T09:12:25.716Z,10
2023-04-07T09:13:32.484Z,13
2023-04-07T09:14:39.140Z,12
2023-04-07T09:15:45.891Z,11
2023-04-07T09:16:52.970Z,11
2023-04-07T09:17:59.760Z,11
2023-04-07T09:19:06.600Z,12
2023-04-07T09:20:13.415Z,10
2023-04-07T09:21:20.186Z,11
2023-04-07T09:22:26.924Z,10
2023-04-07T09:23:38.676Z,10
2023-04-07T09:24:45.456Z,10
2023-04-07T09:25:52.241Z,10
2023-04-07T09:26:59.039Z,11
2023-04-07T09:28:13.621Z,12
2023-04-07T09:29:20.311Z,11
2023-04-07T09:30:27.033Z,11
2023-04-07T09:31:33.707Z,13
2023-04-07T09:32:48.504Z,9
2023-04-07T09:33:55.126Z,11
2023-04-07T09:35:01.918Z,12
2023-04-07T09:36:08.819Z,17
2023-04-07T09:37:15.607Z,70
2023-04-07T09:38:22.409Z,53
2023-04-07T09:39:29.094Z,137
2023-04-07T09:40:35.883Z,89
2023-04-07T09:41:42.797Z,122
2023-04-07T09:42:49.403Z,103
2023-04-07T09:43:56.145Z,52
2023-04-07T09:45:02.875Z,82
2023-04-07T09:46:09.896Z,96
2023-04-07T09:47:19.290Z,56
2023-04-07T09:48:34.089Z,23
2023-04-07T09:49:40.835Z,43
2023-04-07T09:50:55.615Z,18
2023-04-07T09:52:10.308Z,17
2023-04-07T09:53:17.179Z,26
2023-04-07T09:54:23.768Z,40
2023-04-07T09:55:35.791Z,40
2023-04-07T09:56:42.548Z,21
2023-04-07T09:57:49.270Z,22
2023-04-07T09:58:55.970Z,16
2023-04-07T10:00:02.780Z,10
2023-04-07T10:01:10.121Z,11
2023-04-07T10:02:16.853Z,10
2023-04-07T10:03:23.634Z,7
2023-04-07T10:04:30.393Z,6
2023-04-07T10:05:37.170Z,7
2023-04-07T10:06:43.947Z,9
2023-04-07T10:07:50.735Z,8
2023-04-07T10:08:57.565Z,7
2023-04-07T10:10:04.211Z,8
2023-04-07T10:11:11.076Z,6
2023-04-07T10:12:17.728Z,7
2023-04-07T10:13:24.554Z,9
2023-04-07T10:14:31.263Z,8
2023-04-07T10:15:37.985Z,10
2023-04-07T10:16:44.800Z,11
2023-04-07T10:17:51.566Z,13
2023-04-07T10:18:58.271Z,12
2023-04-07T10:20:05.105Z,13
2023-04-07T10:21:12.033Z,13
2023-04-07T10:22:18.683Z,12
2023-04-07T10:23:25.530Z,11
2023-04-07T10:24:40.237Z,15
2023-04-07T10:25:57.089Z,15
2023-04-07T10:27:03.897Z,15
2023-04-07T10:28:10.587Z,16
2023-04-07T10:29:17.416Z,16
2023-04-07T10:30:24.145Z,15
2023-04-07T10:31:30.937Z,14
2023-04-07T10:32:37.765Z,14
2023-04-07T10:33:49.818Z,14
2023-04-07T10:34:56.288Z,14
2023-04-07T10:36:03.095Z,15
2023-04-07T10:37:09.841Z,16
2023-04-07T10:38:16.642Z,16
2023-04-07T10:39:23.386Z,16
2023-04-07T10:40:30.317Z,18
2023-04-07T10:41:37.119Z,18
2023-04-07T10:42:43.787Z,18
2023-04-07T10:43:53.435Z,17
2023-04-07T10:45:00.277Z,18
2023-04-07T10:46:10.064Z,18
2023-04-07T10:47:16.812Z,20
2023-04-07T10:48:23.649Z,18
2023-04-07T10:49:30.354Z,22
2023-04-07T10:50:39.691Z,18
2023-04-07T10:51:46.385Z,19
2023-04-07T10:53:03.140Z,22
2023-04-07T10:54:15.743Z,22
2023-04-07T10:55:25.663Z,21
2023-04-07T10:56:32.538Z,20
2023-04-07T10:57:49.423Z,18
2023-04-07T10:59:06.377Z,16
2023-04-07T11:00:18.380Z,15
2023-04-07T11:01:25.304Z,19
2023-04-07T11:02:32.195Z,20
2023-04-07T11:03:39.102Z,19
2023-04-07T11:04:45.815Z,20
2023-04-07T11:05:52.335Z,18
2023-04-07T11:07:09.111Z,19
2023-04-07T11:08:15.872Z,19
2023-04-07T11:09:32.737Z,21
2023-04-07T11:10:39.469Z,23
2023-04-07T11:11:46.235Z,21
2023-04-07T11:12:52.935Z,22
2023-04-07T11:14:02.572Z,23
2023-04-07T11:15:09.451Z,22
2023-04-07T11:16:21.132Z,24
2023-04-07T11:17:27.897Z,24
2023-04-07T11:18:34.558Z,23
2023-04-07T11:19:41.330Z,24
2023-04-07T11:20:53.184Z,29
2023-04-07T11:21:59.939Z,25
2023-04-07T11:23:16.860Z,23
2023-04-07T11:24:23.666Z,24
2023-04-07T11:25:38.544Z,23
2023-04-07T11:26:45.381Z,25
2023-04-07T11:27:52.150Z,23
2023-04-07T11:28:58.848Z,24
2023-04-07T11:30:05.568Z,27
2023-04-07T11:31:12.679Z,25
2023-04-07T11:32:25.624Z,25
2023-04-07T11:33:31.279Z,22
2023-04-07T11:34:38.194Z,22
2023-04-07T11:35:44.978Z,25
2023-04-07T11:36:56.837Z,23
2023-04-07T11:38:13.754Z,22
2023-04-07T11:39:20.431Z,23
2023-04-07T11:40:27.278Z,43
2023-04-07T11:41:36.989Z,82
2023-04-07T11:42:43.656Z,64
2023-04-07T11:43:50.469Z,56
2023-04-07T11:45:08.350Z,52
2023-04-07T11:46:19.165Z,37
2023-04-07T11:47:25.955Z,63
2023-04-07T11:48:37.778Z,58
2023-04-07T11:49:44.615Z,50
2023-04-07T11:50:51.497Z,40
2023-04-07T11:51:58.138Z,153
2023-04-07T11:53:04.889Z,94
2023-04-07T11:54:11.737Z,113
2023-04-07T11:55:20.262Z,64
2023-04-07T11:56:25.364Z,67
2023-04-07T11:57:32.102Z,57
2023-04-07T11:58:38.888Z,62
2023-04-07T11:59:53.333Z,34
2023-04-07T12:01:10.409Z,51
2023-04-07T12:02:17.222Z,81
2023-04-07T12:03:34.199Z,54
2023-04-07T12:04:44.124Z,32
2023-04-07T12:05:55.733Z,28
2023-04-07T12:07:02.511Z,25
2023-04-07T12:08:09.337Z,31
2023-04-07T12:09:16.101Z,29
2023-04-07T12:10:32.997Z,29
2023-04-07T12:11:39.743Z,36
2023-04-07T12:12:46.540Z,30
2023-04-07T12:13:53.280Z,30
2023-04-07T12:15:00.129Z,30
2023-04-07T12:16:07.094Z,23
2023-04-07T12:17:13.822Z,27
2023-04-07T12:18:23.139Z,27
2023-04-07T12:19:29.987Z,25
2023-04-07T12:20:37.725Z,27
2023-04-07T12:21:43.560Z,28
2023-04-07T12:22:50.337Z,26
2023-04-07T12:23:56.988Z,25
2023-04-07T12:25:03.772Z,21
2023-04-07T12:26:10.771Z,22
2023-04-07T12:27:17.589Z,23
2023-04-07T12:28:24.304Z,22
2023-04-07T12:29:30.989Z,24
2023-04-07T12:30:37.706Z,22
2023-04-07T12:31:44.578Z,22
2023-04-07T12:32:51.507Z,22
2023-04-07T12:33:58.269Z,22
2023-04-07T12:35:05.144Z,23
2023-04-07T12:36:11.945Z,26
2023-04-07T12:37:18.833Z,22
2023-04-07T12:38:25.608Z,19
2023-04-07T12:39:32.400Z,19
2023-04-07T12:40:39.158Z,19
2023-04-07T12:41:46.015Z,20
2023-04-07T12:42:52.542Z,21
2023-04-07T12:43:59.442Z,18
2023-04-07T12:45:06.197Z,19
2023-04-07T12:46:13.308Z,21
2023-04-07T12:47:20.171Z,21
2023-04-07T12:48:26.820Z,20
2023-04-07T12:49:33.737Z,21
2023-04-07T12:50:40.516Z,20
2023-04-07T12:51:47.177Z,20
2023-04-07T12:52:53.852Z,21
2023-04-07T12:54:00.630Z,24
2023-04-07T12:55:07.386Z,24
2023-04-07T12:56:14.321Z,26
2023-04-07T12:57:20.997Z,23
2023-04-07T12:58:27.740Z,22
2023-04-07T12:59:34.530Z,18
2023-04-07T13:00:41.402Z,21
2023-04-07T13:01:50.240Z,22
2023-04-07T13:02:54.974Z,22
2023-04-07T13:04:01.696Z,20
2023-04-07T13:05:08.380Z,18
2023-04-07T13:06:15.143Z,18
2023-04-07T13:07:21.890Z,18
2023-04-07T13:08:28.655Z,20
2023-04-07T13:09:35.549Z,19
2023-04-07T13:10:42.283Z,19
2023-04-07T13:11:48.988Z,19
2023-04-07T13:12:55.741Z,19
2023-04-07T13:14:02.479Z,18
2023-04-07T13:15:09.218Z,16
2023-04-07T13:16:16.059Z,14
2023-04-07T13:17:22.832Z,15
2023-04-07T13:18:29.543Z,14
2023-04-07T13:19:37.484Z,13
2023-04-07T13:20:43.097Z,13
2023-04-07T13:21:49.939Z,13
2023-04-07T13:24:03.478Z,14
2023-04-07T13:25:10.241Z,14
2023-04-07T13:26:16.994Z,14
2023-04-07T13:27:23.912Z,15
2023-04-07T13:28:30.720Z,14
2023-04-07T13:29:37.429Z,12
2023-04-07T13:30:44.286Z,12
2023-04-07T13:31:51.147Z,15
2023-04-07T13:32:57.851Z,18
2023-04-07T13:34:04.653Z,19
2023-04-07T13:35:11.353Z,14
2023-04-07T13:36:23.067Z,13
2023-04-07T13:37:27.957Z,13
2023-04-07T13:38:34.670Z,12
2023-04-07T13:39:41.517Z,16
2023-04-07T13:40:48.362Z,14
2023-04-07T13:41:55.099Z,14
2023-04-07T13:43:01.909Z,11
2023-04-07T13:44:08.752Z,11
2023-04-07T13:45:15.524Z,12
2023-04-07T13:46:28.280Z,13
2023-04-07T13:47:29.155Z,15
2023-04-07T13:48:38.715Z,22
2023-04-07T13:49:45.532Z,30
2023-04-07T13:50:52.405Z,30
2023-04-07T13:51:59.138Z,42
2023-04-07T13:53:06.075Z,43
2023-04-07T13:54:12.704Z,53
2023-04-07T13:55:19.376Z,62
2023-04-07T13:56:26.228Z,48
2023-04-07T13:57:32.936Z,78
2023-04-07T13:58:39.852Z,71
2023-04-07T13:59:46.585Z,80
2023-04-07T14:00:53.421Z,60
2023-04-07T14:02:00.324Z,126
2023-04-07T14:03:07.154Z,91
2023-04-07T14:04:13.953Z,89
2023-04-07T14:05:20.636Z,103
2023-04-07T14:06:27.499Z,55
2023-04-07T14:07:34.457Z,56
2023-04-07T14:08:41.335Z,55
2023-04-07T14:09:48.085Z,69
2023-04-07T14:10:54.969Z,50
2023-04-07T14:12:01.747Z,59
2023-04-07T14:13:08.650Z,39
2023-04-07T14:14:15.447Z,24
2023-04-07T14:15:22.243Z,43
2023-04-07T14:16:29.133Z,45
2023-04-07T14:17:35.888Z,18
2023-04-07T14:18:42.561Z,20
2023-04-07T14:19:49.364Z,20
2023-04-07T14:20:56.070Z,19
2023-04-07T14:22:02.771Z,19
2023-04-07T14:23:09.557Z,19
2023-04-07T14:24:16.393Z,17
2023-04-07T14:25:23.124Z,18
2023-04-07T14:26:29.903Z,19
2023-04-07T14:27:36.807Z,20
2023-04-07T14:28:43.541Z,19
2023-04-07T14:29:50.454Z,20
2023-04-07T14:30:57.178Z,22
2023-04-07T14:32:03.885Z,21
2023-04-07T14:33:10.769Z,21
2023-04-07T14:34:17.568Z,21
2023-04-07T14:35:24.403Z,24
2023-04-07T14:36:31.253Z,24
2023-04-07T14:37:38.045Z,24
2023-04-07T14:38:44.782Z,23
2023-04-07T14:40:02.320Z,22
2023-04-07T14:41:09.361Z,22
2023-04-07T14:42:05.240Z,25
2023-04-07T14:43:11.984Z,23
2023-04-07T14:44:18.696Z,25
2023-04-07T14:45:25.590Z,25
2023-04-07T14:46:32.328Z,24
2023-04-07T14:47:39.034Z,25
2023-04-07T14:48:45.943Z,25
2023-04-07T14:49:53.673Z,27
2023-04-07T14:51:08.599Z,26
2023-04-07T14:52:06.502Z,25
2023-04-07T14:53:13.249Z,26
2023-04-07T14:54:20.024Z,26
2023-04-07T14:55:26.769Z,27
2023-04-07T14:56:33.599Z,27
2023-04-07T14:57:40.477Z,23
2023-04-07T14:58:47.236Z,25
2023-04-07T14:59:54.155Z,25
2023-04-07T15:01:01.131Z,21
2023-04-07T15:02:07.905Z,20
2023-04-07T15:03:14.815Z,21
2023-04-07T15:04:21.596Z,21
2023-04-07T15:05:28.221Z,20
2023-04-07T15:06:35.020Z,20
2023-04-07T15:07:44.766Z,21
2023-04-07T15:08:51.567Z,19
2023-04-07T15:09:58.385Z,18
2023-04-07T15:11:05.228Z,20
2023-04-07T15:12:11.963Z,17
2023-04-07T15:13:18.697Z,17
2023-04-07T15:14:25.448Z,19
2023-04-07T15:15:32.361Z,22
2023-04-07T15:16:39.284Z,19
2023-04-07T15:17:46.066Z,18
2023-04-07T15:18:52.832Z,20
2023-04-07T15:19:59.637Z,19
2023-04-07T15:21:06.572Z,18
2023-04-07T15:22:13.384Z,18
2023-04-07T15:23:20.032Z,17
2023-04-07T15:24:26.762Z,17
2023-04-07T15:25:33.501Z,19
2023-04-07T15:26:40.430Z,16
2023-04-07T15:27:47.294Z,17
2023-04-07T15:28:54.027Z,17
2023-04-07T15:30:00.759Z,16
2023-04-07T15:31:07.542Z,15
2023-04-07T15:32:14.258Z,15
2023-04-07T15:33:21.126Z,16
2023-04-07T15:34:27.969Z,15
2023-04-07T15:35:34.700Z,16
2023-04-07T15:36:41.370Z,15
2023-04-07T15:37:48.232Z,16
2023-04-07T15:38:54.987Z,14
2023-04-07T15:40:01.719Z,15
2023-04-07T15:41:09.044Z,16
2023-04-07T15:42:18.517Z,14
2023-04-07T15:43:25.204Z,16
2023-04-07T15:44:31.973Z,17
2023-04-07T15:45:38.820Z,15
2023-04-07T15:46:45.590Z,16
2023-04-07T15:47:52.315Z,15
2023-04-07T15:48:59.066Z,13
2023-04-07T15:50:05.902Z,14
2023-04-07T15:51:13.006Z,16
2023-04-07T15:52:19.786Z,15
2023-04-07T15:53:26.532Z,16
2023-04-07T15:54:33.297Z,17
2023-04-07T15:55:40.158Z,15
2023-04-07T15:56:46.991Z,15
2023-04-07T15:57:53.686Z,14
2023-04-07T15:59:00.482Z,13
2023-04-07T16:00:07.235Z,13
2023-04-07T16:01:14.303Z,12
2023-04-07T16:02:21.153Z,12